Redwood City, CA

10:57 AM PDT on August 24, 2016 (GMT -0700)
San Carlos | | Change Station

Elev 3 ft 37.51 °N, 122.25 °W | Updated 2 minutes ago

Scattered Clouds
Scattered Clouds
64 °F
Feels Like 64 °F
N
4
Wind Variable Wind from Variable

Today
High -- | Low -- °F
--% Chance of Precip.
Yesterday
High -- | Low -- °F
Precip. -- in
Pressure 30.12 in
Visibility 10.0 miles
Clouds Scattered Clouds 1700 ft
Dew Point 57 °F
Humidity 77%
Rainfall 0.00 in
Snow Depth Not available.
6:33 AM 7:48 PM
Waning Gibbous, 55% visible
METAR KSQL 241755Z VRB03KT 10SM SCT017 18/14 A3012
Pressure 30.12 in
Visibility 10.0 miles
Clouds Scattered Clouds 1700 ft
Dew Point 57 °F
Humidity 77%
Rainfall 0.00 in
Snow Depth Not available.
6:33 AM 7:48 PM
Waning Gibbous, 55% visible
METAR KSQL 241755Z VRB03KT 10SM SCT017 18/14 A3012

10-Day Weather Forecast

Almanac

Astronomy

Aug. 24, 2016 Rise Set
Actual Time
Civil Twilight
Nautical Twilight
Astronomical Twilight
Moon
Length of Visible Light
Length of Day
Tomorrow will be .
, % of the Moon is Illuminated

Today's Extremes

State Highs State Lows

Community

WunderPhotos

Upload Photos

1,934,661 photos uploaded!

WunderBlog® & News

Nearby

Air Quality

  Air Quality AQ Index Pollutant
Not available.

Snow Depth

Station Depth Elevation

Earthquake Activity

City Distance Mag. Time & Date
Minimum magnitude displayed is 2.5.

Coastal Water Temperatures

Place Temperature

Stations

Nearby Weather Stations

Station Location Temp. Windchill Dew Point Humidity Wind Precip. Elev Updated Type
                   

Watches & Warnings

There are currently no watches in effect.